createdAt,value
2022-12-22T00:02:31.073Z,12.80
2022-12-22T00:05:40.040Z,14.17
2022-12-22T00:08:45.266Z,9.57
2022-12-22T00:11:50.863Z,15.57
2022-12-22T00:14:56.532Z,12.10
2022-12-22T00:18:02.617Z,11.70
2022-12-22T00:21:08.420Z,10.77
2022-12-22T00:24:14.350Z,11.73
2022-12-22T00:27:20.308Z,10.87
2022-12-22T00:30:31.890Z,12.13
2022-12-22T00:33:39.013Z,11.97
2022-12-22T00:36:44.473Z,13.30
2022-12-22T00:39:49.730Z,15.07
2022-12-22T00:42:54.912Z,15.30
2022-12-22T00:46:00.511Z,12.93
2022-12-22T00:49:06.955Z,15.80
2022-12-22T00:52:12.830Z,13.57
2022-12-22T00:55:18.760Z,11.13
2022-12-22T00:58:32.761Z,13.83
2022-12-22T01:01:38.032Z,13.73
2022-12-22T01:04:43.725Z,13.93
2022-12-22T01:07:49.256Z,16.20
2022-12-22T01:10:54.893Z,15.73
2022-12-22T01:14:00.555Z,14.63
2022-12-22T01:17:06.138Z,15.93
2022-12-22T01:20:11.440Z,13.13
2022-12-22T01:23:17.237Z,13.80
2022-12-22T01:26:27.497Z,14.37
2022-12-22T01:29:33.120Z,12.80
2022-12-22T01:32:38.260Z,13.80
2022-12-22T01:35:46.975Z,14.17
2022-12-22T01:38:52.467Z,14.53
2022-12-22T01:41:58.188Z,13.33
2022-12-22T01:45:03.445Z,17.40
2022-12-22T01:48:09.015Z,13.43
2022-12-22T01:51:15.382Z,15.37
2022-12-22T01:54:21.457Z,15.27
2022-12-22T01:57:27.267Z,27.03
2022-12-22T02:00:33.023Z,15.67
2022-12-22T02:03:40.779Z,18.60
2022-12-22T02:06:59.506Z,18.70
2022-12-22T02:10:32.669Z,15.50
2022-12-22T02:14:09.794Z,15.73
2022-12-22T02:17:18.681Z,15.70
2022-12-22T02:20:49.542Z,14.83
2022-12-22T02:24:09.676Z,15.60
2022-12-22T02:27:18.691Z,17.87
2022-12-22T02:30:26.075Z,15.60
2022-12-22T02:33:31.808Z,17.43
2022-12-22T02:37:07.295Z,18.40
2022-12-22T02:40:23.919Z,32.27
2022-12-22T02:43:40.960Z,21.60
2022-12-22T02:46:56.592Z,19.40
2022-12-22T02:50:14.143Z,19.17
2022-12-22T02:53:20.997Z,17.53
2022-12-22T02:56:28.447Z,21.67
2022-12-22T02:59:34.334Z,17.60
2022-12-22T03:02:40.247Z,16.57
2022-12-22T03:05:45.643Z,36.07
2022-12-22T03:08:51.042Z,17.83
2022-12-22T03:11:56.852Z,20.27
2022-12-22T03:15:02.653Z,21.17
2022-12-22T03:18:08.367Z,15.77
2022-12-22T03:21:14.546Z,19.40
2022-12-22T03:24:20.312Z,20.00
2022-12-22T03:27:07.406Z,20.07
2022-12-22T03:29:54.378Z,14.77
2022-12-22T03:32:41.432Z,19.27
2022-12-22T03:35:28.586Z,14.27
2022-12-22T03:38:15.933Z,16.27
2022-12-22T03:41:03.795Z,15.47
2022-12-22T03:44:09.364Z,19.90
2022-12-22T03:46:56.460Z,22.83
2022-12-22T03:49:43.557Z,17.30
2022-12-22T03:52:30.488Z,44.17
2022-12-22T03:55:17.489Z,74.73
2022-12-22T03:58:04.562Z,104.27
2022-12-22T04:00:51.654Z,197.50
2022-12-22T04:03:38.688Z,293.23
2022-12-22T04:06:25.743Z,17.73
2022-12-22T04:09:12.745Z,18.13
2022-12-22T04:12:18.259Z,83.63
2022-12-22T04:15:05.883Z,21.53
2022-12-22T04:17:53.312Z,20.37
2022-12-22T04:20:40.240Z,189.77
2022-12-22T04:23:27.451Z,88.17
2022-12-22T04:26:14.451Z,41.70
2022-12-22T04:29:01.793Z,95.47
2022-12-22T04:31:48.857Z,44.83
2022-12-22T04:34:36.076Z,36.93
2022-12-22T04:37:23.136Z,18.47
2022-12-22T04:40:10.389Z,52.53
2022-12-22T04:42:57.318Z,96.23
2022-12-22T04:45:45.029Z,27.97
2022-12-22T04:48:32.718Z,35.90
2022-12-22T04:51:19.722Z,71.03
2022-12-22T04:54:06.735Z,28.87
2022-12-22T04:56:53.991Z,18.00
2022-12-22T04:59:40.926Z,21.80
2022-12-22T05:02:28.097Z,22.93
2022-12-22T05:05:15.253Z,22.43
2022-12-22T05:08:03.235Z,21.23
2022-12-22T05:10:50.302Z,24.50
2022-12-22T05:13:37.323Z,60.00
2022-12-22T05:16:24.396Z,22.23
2022-12-22T05:19:11.532Z,23.23
2022-12-22T05:21:58.516Z,23.47
2022-12-22T05:24:45.567Z,23.40
2022-12-22T05:27:32.536Z,27.27
2022-12-22T05:30:20.375Z,26.70
2022-12-22T05:33:07.345Z,26.07
2022-12-22T05:35:54.290Z,128.07
2022-12-22T05:38:42.007Z,29.13
2022-12-22T05:41:29.051Z,38.43
2022-12-22T05:44:16.120Z,22.17
2022-12-22T05:47:03.230Z,17.87
2022-12-22T05:49:50.243Z,113.40
2022-12-22T05:52:37.360Z,29.83
2022-12-22T05:55:24.430Z,26.57
2022-12-22T05:58:11.342Z,26.33
2022-12-22T06:00:59.381Z,25.17
2022-12-22T06:03:46.581Z,406.80
2022-12-22T06:06:33.657Z,47.50
2022-12-22T06:09:20.591Z,35.17
2022-12-22T06:12:08.206Z,28.30
2022-12-22T06:14:55.267Z,13.60
2022-12-22T06:17:45.135Z,53.93
2022-12-22T06:20:32.569Z,27.93
2022-12-22T06:23:20.903Z,17.73
2022-12-22T06:26:08.878Z,21.77
2022-12-22T06:28:56.003Z,15.87
2022-12-22T06:31:43.024Z,56.53
2022-12-22T06:34:30.073Z,28.67
2022-12-22T06:37:17.046Z,14.87
2022-12-22T06:40:04.647Z,23.70
2022-12-22T06:43:10.522Z,61.57
2022-12-22T06:45:57.913Z,27.43
2022-12-22T06:48:45.180Z,20.57
2022-12-22T06:51:32.340Z,13.27
2022-12-22T06:54:24.068Z,16.73
2022-12-22T06:57:13.367Z,142.47
2022-12-22T07:00:00.452Z,114.23
2022-12-22T07:02:47.541Z,24.60
2022-12-22T07:05:34.999Z,27.80
2022-12-22T07:08:22.133Z,18.60
2022-12-22T07:11:09.598Z,47.43
2022-12-22T07:13:56.611Z,26.00
2022-12-22T07:16:43.735Z,41.80
2022-12-22T07:19:30.749Z,44.47
2022-12-22T07:22:17.747Z,41.57
2022-12-22T07:25:05.151Z,44.87
2022-12-22T07:27:52.197Z,116.53
2022-12-22T07:30:39.309Z,182.03
2022-12-22T07:33:26.456Z,41.53
2022-12-22T07:36:19.826Z,58.73
2022-12-22T07:39:07.487Z,124.77
2022-12-22T07:42:12.987Z,101.40
2022-12-22T07:44:59.909Z,61.70
2022-12-22T07:47:47.328Z,156.20
2022-12-22T07:50:35.485Z,40.60
2022-12-22T07:53:22.473Z,68.40
2022-12-22T07:56:09.443Z,47.50
2022-12-22T07:58:56.587Z,35.93
2022-12-22T08:01:45.528Z,132.67
2022-12-22T08:04:32.820Z,478.27
2022-12-22T08:07:19.914Z,190.57
2022-12-22T08:10:08.391Z,64.33
2022-12-22T08:12:55.707Z,101.37
2022-12-22T08:15:42.967Z,34.57
2022-12-22T08:18:30.254Z,86.53
2022-12-22T08:21:17.746Z,143.77
2022-12-22T08:24:05.354Z,222.43
2022-12-22T08:26:55.921Z,97.67
2022-12-22T08:29:48.616Z,195.87
2022-12-22T08:32:38.316Z,284.27
2022-12-22T08:35:25.874Z,357.80
2022-12-22T08:38:14.540Z,124.03
2022-12-22T08:41:01.744Z,70.30
2022-12-22T08:43:48.793Z,125.43
2022-12-22T08:46:35.923Z,233.83
2022-12-22T08:49:23.719Z,254.23
2022-12-22T08:52:17.840Z,587.70
2022-12-22T08:55:06.218Z,148.93
2022-12-22T08:57:56.186Z,172.03
2022-12-22T09:00:44.428Z,151.00
2022-12-22T09:03:31.481Z,126.53
2022-12-22T09:06:27.256Z,156.13
2022-12-22T09:09:16.985Z,171.60
2022-12-22T09:12:04.266Z,273.83
2022-12-22T09:14:51.209Z,145.83
2022-12-22T09:17:38.391Z,66.20
2022-12-22T09:20:25.382Z,101.10
2022-12-22T09:23:12.388Z,56.07
2022-12-22T09:25:59.509Z,93.10
2022-12-22T09:28:50.579Z,130.30
2022-12-22T09:31:38.017Z,200.73
2022-12-22T09:34:25.049Z,263.03
2022-12-22T09:37:15.279Z,374.07
2022-12-22T09:40:02.305Z,462.37
2022-12-22T09:42:49.342Z,297.47
2022-12-22T09:45:36.985Z,160.53
2022-12-22T09:48:30.635Z,95.40
2022-12-22T09:51:24.463Z,185.10
2022-12-22T09:54:14.356Z,501.13
2022-12-22T09:57:01.632Z,172.73
2022-12-22T09:59:48.740Z,44.23
2022-12-22T10:03:02.026Z,122.37
2022-12-22T10:05:54.060Z,41.07
2022-12-22T10:08:41.403Z,36.87
2022-12-22T10:11:28.527Z,43.03
2022-12-22T10:14:15.444Z,42.10
2022-12-22T10:17:19.111Z,44.20
2022-12-22T10:20:29.893Z,60.73
2022-12-22T10:23:26.846Z,61.07
2022-12-22T10:26:34.320Z,54.67
2022-12-22T10:29:26.621Z,66.60
2022-12-22T10:32:19.591Z,59.23
2022-12-22T10:35:07.442Z,58.80
2022-12-22T10:37:57.838Z,55.43
2022-12-22T10:40:48.682Z,61.00
2022-12-22T10:43:40.345Z,72.73
2022-12-22T10:46:36.018Z,59.57
2022-12-22T10:52:32.335Z,57.43
2022-12-22T10:55:22.654Z,63.17
2022-12-22T10:58:21.786Z,50.30
2022-12-22T11:01:11.958Z,50.77
2022-12-22T11:04:25.466Z,47.83
2022-12-22T11:07:12.757Z,54.10
2022-12-22T11:10:00.283Z,51.23
2022-12-22T11:12:50.019Z,43.47
2022-12-22T11:15:54.856Z,45.13
2022-12-22T11:18:56.885Z,46.03
2022-12-22T11:22:13.182Z,49.47
2022-12-22T11:25:12.967Z,46.20
2022-12-22T11:28:18.087Z,42.87
2022-12-22T11:31:35.446Z,43.87
2022-12-22T11:35:13.384Z,46.47
2022-12-22T11:38:12.463Z,48.17
2022-12-22T11:41:05.190Z,48.30
2022-12-22T11:43:55.028Z,41.80
2022-12-22T11:46:52.468Z,46.13
2022-12-22T11:50:59.214Z,46.67
2022-12-22T11:53:37.742Z,44.53
2022-12-22T11:56:30.073Z,42.53
2022-12-22T11:59:41.460Z,38.20
2022-12-22T12:02:54.074Z,47.73
2022-12-22T12:05:53.183Z,39.40
2022-12-22T12:09:14.598Z,43.90
2022-12-22T12:12:07.571Z,44.43
2022-12-22T12:15:16.220Z,43.70
2022-12-22T12:18:35.687Z,46.83
2022-12-22T12:21:26.829Z,53.37
2022-12-22T12:24:40.689Z,50.77
2022-12-22T12:27:49.234Z,58.07
2022-12-22T12:30:45.222Z,56.80
2022-12-22T12:33:50.591Z,48.20
2022-12-22T12:37:01.930Z,49.43
2022-12-22T12:40:17.199Z,49.63
2022-12-22T12:43:06.771Z,48.97
2022-12-22T12:45:55.499Z,50.30
2022-12-22T12:48:42.881Z,48.37
2022-12-22T12:51:48.103Z,46.00
2022-12-22T12:54:39.367Z,51.20
2022-12-22T12:57:46.240Z,49.60
2022-12-22T13:00:33.532Z,48.30
2022-12-22T13:06:50.015Z,45.63
2022-12-22T13:10:07.214Z,47.03
2022-12-22T13:12:54.980Z,39.27
2022-12-22T13:15:45.301Z,36.90
2022-12-22T13:18:35.339Z,38.37
2022-12-22T13:24:47.230Z,35.10
2022-12-22T13:27:36.690Z,31.77
2022-12-22T13:30:24.711Z,31.13
2022-12-22T13:33:15.602Z,32.47
2022-12-22T13:36:03.719Z,30.50
2022-12-22T13:39:01.269Z,30.97
2022-12-22T13:41:50.472Z,30.40
2022-12-22T13:44:38.802Z,30.83
2022-12-22T13:47:25.896Z,26.43
2022-12-22T13:50:25.298Z,24.53
2022-12-22T13:53:42.275Z,23.60
2022-12-22T13:56:41.481Z,28.10
2022-12-22T13:59:42.158Z,22.40
2022-12-22T14:02:32.626Z,21.67
2022-12-22T14:05:20.305Z,15.90
2022-12-22T14:08:10.699Z,18.00
2022-12-22T14:10:57.751Z,18.90
2022-12-22T14:13:45.152Z,16.87
2022-12-22T14:16:32.918Z,16.00
2022-12-22T14:19:22.441Z,19.80
2022-12-22T14:22:15.021Z,18.30
2022-12-22T14:25:09.490Z,17.27
2022-12-22T14:27:57.452Z,18.60
2022-12-22T14:30:49.226Z,20.83
2022-12-22T14:33:36.686Z,14.23
2022-12-22T14:36:26.264Z,17.50
2022-12-22T14:39:25.972Z,14.37
2022-12-22T14:42:14.520Z,22.17
2022-12-22T14:45:01.624Z,16.47
2022-12-22T14:47:48.846Z,17.27
2022-12-22T14:50:37.022Z,17.00
2022-12-22T14:53:52.771Z,14.37
2022-12-22T14:56:51.849Z,12.27
2022-12-22T14:59:38.766Z,14.50
2022-12-22T15:02:36.578Z,16.80
2022-12-22T15:05:31.515Z,16.17
2022-12-22T15:08:43.228Z,15.77
2022-12-22T15:11:31.646Z,16.03
2022-12-22T15:14:22.004Z,14.03
2022-12-22T15:17:28.135Z,14.27
2022-12-22T15:20:21.955Z,19.60
2022-12-22T15:23:14.483Z,16.57
2022-12-22T15:26:01.541Z,20.30
2022-12-22T15:28:48.542Z,18.77
2022-12-22T15:31:37.212Z,20.13
2022-12-22T15:34:30.917Z,19.70
2022-12-22T15:37:18.024Z,24.50
2022-12-22T15:40:12.471Z,24.60
2022-12-22T15:42:59.496Z,26.23
2022-12-22T15:45:46.744Z,30.73
2022-12-22T15:48:36.565Z,26.53
2022-12-22T15:51:27.937Z,29.57
2022-12-22T15:54:16.081Z,25.93
2022-12-22T15:57:03.070Z,29.83
2022-12-22T15:59:50.047Z,25.13
2022-12-22T16:02:37.238Z,29.23
2022-12-22T16:05:24.338Z,29.03
2022-12-22T16:08:18.318Z,34.00
2022-12-22T16:11:07.412Z,28.77
2022-12-22T16:13:54.422Z,27.17
2022-12-22T16:16:41.779Z,28.40
2022-12-22T16:19:28.847Z,31.27
2022-12-22T16:22:19.226Z,26.97
2022-12-22T16:25:13.090Z,29.53
2022-12-22T16:28:01.429Z,32.73
2022-12-22T16:30:49.348Z,30.80
2022-12-22T16:33:37.676Z,28.40
2022-12-22T16:36:24.724Z,31.40
2022-12-22T16:39:11.905Z,35.93
2022-12-22T16:42:00.487Z,31.87
2022-12-22T16:45:01.045Z,35.67
2022-12-22T16:47:52.347Z,34.60
2022-12-22T16:50:39.659Z,31.50
2022-12-22T16:53:28.703Z,31.73
2022-12-22T16:56:22.393Z,34.43
2022-12-22T16:59:09.855Z,40.93
2022-12-22T17:01:57.919Z,36.33
2022-12-22T17:04:45.497Z,36.20
2022-12-22T17:07:33.644Z,36.60
2022-12-22T17:10:22.781Z,38.50
2022-12-22T17:13:11.070Z,37.97
2022-12-22T17:15:58.153Z,39.10
2022-12-22T17:18:45.194Z,39.17
2022-12-22T17:21:32.715Z,34.80
2022-12-22T17:24:27.520Z,40.83
2022-12-22T17:27:16.077Z,41.67
2022-12-22T17:30:04.068Z,38.83
2022-12-22T17:32:54.397Z,37.07
2022-12-22T17:35:43.733Z,38.43
2022-12-22T17:38:30.889Z,41.10
2022-12-22T17:41:18.000Z,41.27
2022-12-22T17:44:05.159Z,45.73
2022-12-22T17:46:52.629Z,40.90
2022-12-22T17:49:40.300Z,47.43
2022-12-22T17:52:28.220Z,45.77
2022-12-22T17:56:05.891Z,44.77
2022-12-22T17:58:33.566Z,40.33
2022-12-22T18:01:32.003Z,40.93
2022-12-22T18:04:19.108Z,52.70
2022-12-22T18:07:06.149Z,40.20
2022-12-22T18:09:59.054Z,37.13
2022-12-22T18:12:46.095Z,36.07
2022-12-22T18:15:33.041Z,41.87
2022-12-22T18:18:21.049Z,52.53
2022-12-22T18:21:22.701Z,48.00
2022-12-22T18:24:16.737Z,57.07
2022-12-22T18:27:03.756Z,54.47
2022-12-22T18:29:51.081Z,55.70
2022-12-22T18:32:38.095Z,51.10
2022-12-22T18:35:28.093Z,51.20
2022-12-22T18:38:32.679Z,51.67
2022-12-22T18:41:24.699Z,49.57
2022-12-22T18:44:19.263Z,51.73
2022-12-22T18:47:08.211Z,54.80
2022-12-22T18:49:55.309Z,54.97
2022-12-22T18:52:43.224Z,51.00
2022-12-22T18:55:32.470Z,53.70
2022-12-22T18:58:19.767Z,51.30
2022-12-22T19:01:11.552Z,55.77
2022-12-22T19:03:59.243Z,51.00
2022-12-22T19:06:47.239Z,54.77
2022-12-22T19:09:34.648Z,59.87
2022-12-22T19:12:25.978Z,55.70
2022-12-22T19:15:25.991Z,55.80
2022-12-22T19:18:24.311Z,55.23
2022-12-22T19:21:15.204Z,56.23
2022-12-22T19:24:02.098Z,56.07
2022-12-22T19:26:49.768Z,49.90
2022-12-22T19:29:36.913Z,54.67
2022-12-22T19:32:27.972Z,58.87
2022-12-22T19:35:17.960Z,50.77
2022-12-22T19:38:20.292Z,48.93
2022-12-22T19:41:13.713Z,52.33
2022-12-22T19:44:01.185Z,49.17
2022-12-22T19:46:49.088Z,44.53
2022-12-22T19:49:36.267Z,53.63
2022-12-22T19:52:23.188Z,52.73
2022-12-22T19:55:10.657Z,46.23
2022-12-22T19:57:57.919Z,49.23
2022-12-22T20:00:46.750Z,43.73
2022-12-22T20:03:33.791Z,48.97
2022-12-22T20:06:20.948Z,45.40
2022-12-22T20:09:07.873Z,47.47
2022-12-22T20:11:54.937Z,44.90
2022-12-22T20:14:41.886Z,44.03
2022-12-22T20:17:28.900Z,42.77
2022-12-22T20:20:18.803Z,45.07
2022-12-22T20:23:17.110Z,44.87
2022-12-22T20:26:07.969Z,42.67
2022-12-22T20:28:55.015Z,40.83
2022-12-22T20:31:42.097Z,43.67
2022-12-22T20:34:29.066Z,43.90
2022-12-22T20:37:17.642Z,41.50
2022-12-22T20:40:05.598Z,42.83
2022-12-22T20:42:52.867Z,41.83
2022-12-22T20:45:40.975Z,38.00
2022-12-22T20:48:35.204Z,43.13
2022-12-22T20:51:24.378Z,38.33
2022-12-22T20:54:15.479Z,43.37
2022-12-22T20:57:03.027Z,42.80
2022-12-22T20:59:56.041Z,35.87
2022-12-22T21:02:43.822Z,41.13
2022-12-22T21:05:30.853Z,47.13
2022-12-22T21:08:24.080Z,44.93
2022-12-22T21:11:11.048Z,51.73
2022-12-22T21:13:59.216Z,49.53
2022-12-22T21:16:46.327Z,44.70
2022-12-22T21:19:34.311Z,61.90
2022-12-22T21:22:21.327Z,47.97
2022-12-22T21:25:09.897Z,55.67
2022-12-22T21:27:57.201Z,66.03
2022-12-22T21:30:44.228Z,50.87
2022-12-22T21:33:31.584Z,50.97
2022-12-22T21:36:27.851Z,59.93
2022-12-22T21:39:39.390Z,57.10
2022-12-22T21:42:26.436Z,51.47
2022-12-22T21:45:15.424Z,56.80
2022-12-22T21:48:02.550Z,54.83
2022-12-22T21:50:52.635Z,181.63
2022-12-22T21:53:39.631Z,64.37
2022-12-22T21:56:26.617Z,70.07
2022-12-22T21:59:14.085Z,71.77
2022-12-22T22:02:01.157Z,52.17
2022-12-22T22:04:54.151Z,66.93
2022-12-22T22:07:42.394Z,75.23
2022-12-22T22:10:32.156Z,46.67
2022-12-22T22:13:19.093Z,49.33
2022-12-22T22:16:07.924Z,46.43
2022-12-22T22:18:54.910Z,51.60
2022-12-22T22:21:41.887Z,49.87
2022-12-22T22:24:31.283Z,48.40
2022-12-22T22:27:18.286Z,47.80
2022-12-22T22:30:06.679Z,49.80
2022-12-22T22:32:55.198Z,52.80
2022-12-22T22:35:42.540Z,47.63
2022-12-22T22:38:29.547Z,47.93
2022-12-22T22:41:16.518Z,37.47
2022-12-22T22:44:03.503Z,40.33
2022-12-22T22:46:50.582Z,43.20
2022-12-22T22:49:37.609Z,44.80
2022-12-22T22:52:24.620Z,47.43
2022-12-22T22:55:12.782Z,50.33
2022-12-22T22:57:59.773Z,44.03
2022-12-22T23:00:46.848Z,44.13
2022-12-22T23:03:34.004Z,50.70
2022-12-22T23:06:21.263Z,45.93
2022-12-22T23:09:09.041Z,46.67
2022-12-22T23:11:56.062Z,47.33
2022-12-22T23:14:43.062Z,42.20
2022-12-22T23:17:30.014Z,38.33
2022-12-22T23:20:17.155Z,45.27
2022-12-22T23:23:04.134Z,42.53
2022-12-22T23:25:51.347Z,40.17
2022-12-22T23:28:39.047Z,46.60
2022-12-22T23:31:26.580Z,46.27
2022-12-22T23:34:13.673Z,38.03
2022-12-22T23:37:01.010Z,55.83
2022-12-22T23:39:47.998Z,41.53
2022-12-22T23:42:34.958Z,36.17
2022-12-22T23:45:21.970Z,41.40
2022-12-22T23:48:09.863Z,44.43
2022-12-22T23:50:56.842Z,32.03
2022-12-22T23:53:44.062Z,36.60
2022-12-22T23:56:31.737Z,38.20
2022-12-22T23:59:18.737Z,35.73
